Time;durP1;ratioP1;P1;durP2;ratioP2;P2;SDS_P1;SDS_P2;PMS_P1;PMS_P2;Temp;Humidity;BMP_temperature;BMP_pressure;BME280_temperature;BME280_humidity;BME280_pressure;Samples;Min_cycle;Max_cycle;Signal;HPM_P1;HPM_P2
2022/08/04 00:01:56;;;;;;;0.00;0.00;;;26.70;71.40;;;;;;4194020;28;20389;-66
2022/08/04 00:04:28;;;;;;;0.00;0.00;;;26.70;71.50;;;;;;4193871;28;20156;-65
2022/08/04 00:07:00;;;;;;;0.05;0.05;;;26.60;71.30;;;;;;4176769;28;20060;-66
2022/08/04 00:09:30;;;;;;;4.78;2.00;;;26.60;71.30;;;;;;4177644;28;20185;-66
2022/08/04 00:11:55;;;;;;;0.28;0.28;;;26.60;71.50;;;;;;4177793;28;20049;-65
2022/08/04 00:14:20;;;;;;;0.00;0.00;;;26.60;71.50;;;;;;4177873;28;20412;-67
2022/08/04 00:16:43;;;;;;;0.47;0.47;;;26.60;71.50;;;;;;4183854;28;20045;-67
2022/08/04 00:19:10;;;;;;;0.00;0.00;;;26.60;71.60;;;;;;4177281;28;20045;-66
2022/08/04 00:21:38;;;;;;;0.00;0.00;;;26.60;71.50;;;;;;4177602;28;20072;-67
2022/08/04 00:24:02;;;;;;;0.17;0.17;;;26.60;71.50;;;;;;4192064;28;20041;-67
2022/08/04 00:26:33;;;;;;;0.15;0.15;;;26.60;71.60;;;;;;4193416;28;20048;-67
2022/08/04 00:28:56;;;;;;;0.15;0.15;;;26.60;71.70;;;;;;4194431;28;20059;-67
2022/08/04 00:31:19;;;;;;;0.38;0.38;;;26.60;71.50;;;;;;4193487;28;20053;-67
2022/08/04 00:33:44;;;;;;;0.25;0.25;;;26.60;71.60;;;;;;4177703;28;20048;-67
2022/08/04 00:36:07;;;;;;;8.20;0.57;;;26.50;71.70;;;;;;4185896;28;20123;-67
2022/08/04 00:38:31;;;;;;;0.00;0.00;;;26.50;71.70;;;;;;4194269;28;20505;-67
2022/08/04 00:41:04;;;;;;;0.00;0.00;;;26.50;71.70;;;;;;4193776;28;20048;-67
2022/08/04 00:43:32;;;;;;;0.63;0.57;;;26.50;71.70;;;;;;4191434;28;20047;-67
2022/08/04 00:46:20;;;;;;;0.00;0.00;;;26.50;71.70;;;;;;4177170;28;20487;-67
2022/08/04 00:48:56;;;;;;;1.52;1.17;;;26.50;71.70;;;;;;4176979;28;20099;-66
2022/08/04 00:51:26;;;;;;;0.08;0.08;;;26.50;71.80;;;;;;4191803;28;20103;-67
2022/08/04 00:54:01;;;;;;;0.00;0.00;;;26.50;71.80;;;;;;4176373;28;20053;-67
2022/08/04 00:56:42;;;;;;;0.00;0.00;;;26.50;71.70;;;;;;4178165;28;20077;-67
2022/08/04 00:59:13;;;;;;;0.00;0.00;;;26.50;71.70;;;;;;4178707;28;20558;-67
2022/08/04 01:01:59;;;;;;;0.28;0.28;;;26.50;71.90;;;;;;4176735;28;20079;-67
2022/08/04 01:04:40;;;;;;;0.00;0.00;;;26.50;71.90;;;;;;4192145;28;20193;-67
2022/08/04 01:07:24;;;;;;;0.60;0.60;;;26.50;72.00;;;;;;4192101;28;20044;-66
2022/08/04 01:09:57;;;;;;;0.15;0.15;;;26.50;72.10;;;;;;4193297;28;20048;-67
2022/08/04 01:12:45;;;;;;;0.00;0.00;;;26.50;72.90;;;;;;4193465;28;20040;-67
2022/08/04 01:15:16;;;;;;;0.00;0.00;;;26.50;71.90;;;;;;4167677;28;20465;-66
2022/08/04 01:17:53;;;;;;;0.00;0.00;;;26.50;72.10;;;;;;4176759;28;20483;-66
2022/08/04 01:20:21;;;;;;;0.03;0.03;;;26.40;72.20;;;;;;4176185;28;20132;-66
2022/08/04 01:23:33;;;;;;;0.00;0.00;;;26.40;72.20;;;;;;4175419;28;20431;-66
2022/08/04 01:26:23;;;;;;;0.30;0.30;;;26.40;72.30;;;;;;4160092;28;20587;-67
2022/08/04 01:29:09;;;;;;;0.00;0.00;;;26.40;72.40;;;;;;4172754;28;20497;-66
2022/08/04 01:31:46;;;;;;;0.50;0.38;;;26.40;72.50;;;;;;4192827;28;20483;-66
2022/08/04 01:34:13;;;;;;;0.00;0.00;;;26.40;72.40;;;;;;4190955;28;20047;-66
2022/08/04 01:36:35;;;;;;;0.10;0.10;;;26.40;72.50;;;;;;4192786;28;20571;-66
2022/08/04 01:38:57;;;;;;;0.00;0.00;;;26.40;72.60;;;;;;4192322;28;20139;-67
2022/08/04 01:41:20;;;;;;;0.00;0.00;;;26.40;73.50;;;;;;4192605;28;20122;-67
2022/08/04 01:43:56;;;;;;;0.10;0.10;;;26.40;73.60;;;;;;4193030;28;20059;-66
2022/08/04 01:46:21;;;;;;;0.00;0.00;;;26.40;72.70;;;;;;4174775;28;20680;-66
2022/08/04 01:48:47;;;;;;;0.00;0.00;;;26.40;72.70;;;;;;4191074;28;20412;-66
2022/08/04 01:51:10;;;;;;;0.13;0.13;;;26.40;72.80;;;;;;4179928;28;20053;-67
2022/08/04 01:53:33;;;;;;;0.00;0.00;;;26.40;72.70;;;;;;4180225;28;20048;-66
2022/08/04 01:55:57;;;;;;;0.55;0.55;;;26.40;72.70;;;;;;4192890;28;20056;-66
2022/08/04 01:58:20;;;;;;;2.17;1.27;;;26.40;72.80;;;;;;4192662;28;20049;-66
2022/08/04 02:00:50;;;;;;;0.30;0.30;;;26.40;72.80;;;;;;4193036;28;20129;-66
2022/08/04 02:03:18;;;;;;;0.00;0.00;;;26.40;72.80;;;;;;4174725;28;20051;-67
2022/08/04 02:05:42;;;;;;;1.65;0.95;;;26.40;72.80;;;;;;4189423;28;20045;-67
2022/08/04 02:08:34;;;;;;;0.17;0.15;;;26.30;72.60;;;;;;4192442;28;20056;-67
2022/08/04 02:11:07;;;;;;;0.15;0.15;;;26.30;72.60;;;;;;4181678;28;20052;-67
2022/08/04 02:13:38;;;;;;;0.85;0.85;;;26.30;72.70;;;;;;4176885;28;20077;-66
2022/08/04 02:16:04;;;;;;;1.45;1.45;;;26.30;72.70;;;;;;4190654;28;20438;-67
2022/08/04 02:18:33;;;;;;;0.00;0.00;;;26.30;72.70;;;;;;4175698;28;20052;-66
2022/08/04 02:20:58;;;;;;;0.00;0.00;;;26.30;72.70;;;;;;4176093;28;20067;-65
2022/08/04 02:23:29;;;;;;;17.73;0.98;;;26.30;72.70;;;;;;4179237;28;20056;-63
2022/08/04 02:25:55;;;;;;;;;;;26.30;72.70;;;;;;4177312;28;20425;-64
2022/08/04 02:28:24;;;;;;;0.38;0.20;;;26.30;72.70;;;;;;4191389;28;20456;-64
2022/08/04 02:30:53;;;;;;;0.00;0.00;;;26.30;72.70;;;;;;4176714;28;20115;-64
2022/08/04 02:33:22;;;;;;;0.00;0.00;;;26.30;72.70;;;;;;4175495;28;20447;-64
2022/08/04 02:35:52;;;;;;;7.55;1.08;;;26.30;72.80;;;;;;4177091;28;20040;-64
2022/08/04 02:38:23;;;;;;;0.08;0.08;;;26.30;72.80;;;;;;4191690;28;20044;-64
2022/08/04 02:40:47;;;;;;;0.05;0.05;;;26.30;72.70;;;;;;4192069;28;20049;-64
2022/08/04 02:43:10;;;;;;;0.10;0.10;;;26.30;72.80;;;;;;4191514;28;20047;-65
2022/08/04 02:45:35;;;;;;;0.00;0.00;;;26.30;72.80;;;;;;4191247;28;20040;-64
2022/08/04 02:48:01;;;;;;;0.00;0.00;;;26.20;72.80;;;;;;4191942;28;20044;-64
2022/08/04 02:50:33;;;;;;;0.00;0.00;;;26.20;72.80;;;;;;4192186;28;20048;-64
2022/08/04 02:53:00;;;;;;;0.00;0.00;;;26.20;72.80;;;;;;4192068;28;20552;-64
2022/08/04 02:55:23;;;;;;;0.00;0.00;;;26.20;72.80;;;;;;4191434;28;20123;-64
2022/08/04 02:57:48;;;;;;;0.00;0.00;;;26.20;72.80;;;;;;4174370;28;20060;-65
2022/08/04 03:00:13;;;;;;;1.20;1.00;;;26.20;72.70;;;;;;4169522;28;20502;-64
2022/08/04 03:02:55;;;;;;;0.43;0.43;;;26.20;72.70;;;;;;4175118;28;20547;-64
2022/08/04 03:05:19;;;;;;;2.35;1.65;;;26.20;72.80;;;;;;4175182;28;20492;-64
2022/08/04 03:08:05;;;;;;;0.00;0.00;;;26.20;72.80;;;;;;4173725;28;20083;-64
2022/08/04 03:10:57;;;;;;;2.20;1.20;;;26.20;72.80;;;;;;4190355;28;20403;-64
2022/08/04 03:13:55;;;;;;;0.10;0.10;;;26.20;72.90;;;;;;4173679;28;20057;-64
2022/08/04 03:17:09;;;;;;;0.10;0.10;;;26.20;72.80;;;;;;4178510;28;20098;-64
2022/08/04 03:20:07;;;;;;;0.00;0.00;;;26.20;72.90;;;;;;4127267;28;20133;-64
2022/08/04 03:22:55;;;;;;;0.93;0.93;;;26.20;72.90;;;;;;4126897;28;20104;-64
2022/08/04 03:25:58;;;;;;;0.00;0.00;;;26.20;72.90;;;;;;4188110;28;20510;-64
2022/08/04 03:29:20;;;;;;;0.03;0.03;;;26.10;72.80;;;;;;4180724;28;20053;-64
2022/08/04 03:32:23;;;;;;;0.15;0.15;;;26.10;72.90;;;;;;4185029;28;20059;-64
2022/08/04 03:35:16;;;;;;;0.20;0.20;;;26.10;72.90;;;;;;4194340;28;20494;-64
2022/08/04 03:38:17;;;;;;;0.20;0.20;;;26.10;73.00;;;;;;4193843;28;20442;-65
2022/08/04 03:41:08;;;;;;;0.00;0.00;;;26.10;73.00;;;;;;4194651;28;20044;-64
2022/08/04 03:43:47;;;;;;;;;;;26.10;73.00;;;;;;4194467;28;20127;-64
2022/08/04 03:46:47;;;;;;;0.03;0.03;;;26.10;73.00;;;;;;4193111;28;19931;-63
2022/08/04 03:49:29;;;;;;;;;;;26.10;73.10;;;;;;4195089;28;20494;-64
2022/08/04 03:55:33;;;;;;;0.20;0.20;;;26.00;73.10;;;;;;4194026;28;20045;-65
2022/08/04 03:58:25;;;;;;;0.00;0.00;;;26.00;73.10;;;;;;4194423;28;20045;-64
2022/08/04 04:01:02;;;;;;;9.50;1.92;;;26.00;73.10;;;;;;4193605;28;20130;-64
2022/08/04 04:03:52;;;;;;;0.00;0.00;;;26.00;73.10;;;;;;4194611;28;20054;-64
2022/08/04 04:06:52;;;;;;;0.00;0.00;;;26.00;73.10;;;;;;4194398;28;20082;-66
2022/08/04 04:09:50;;;;;;;0.00;0.00;;;26.00;73.10;;;;;;4177952;28;20056;-66
2022/08/04 04:12:45;;;;;;;0.00;0.00;;;26.00;73.10;;;;;;4179308;28;20140;-66
2022/08/04 04:15:19;;;;;;;0.00;0.00;;;26.00;73.20;;;;;;4189699;28;20133;-66
2022/08/04 04:18:16;;;;;;;0.00;0.00;;;26.00;73.30;;;;;;4192738;28;20044;-67
2022/08/04 04:21:16;;;;;;;0.25;0.25;;;26.00;73.30;;;;;;4193940;28;20773;-67
2022/08/04 04:24:00;;;;;;;0.00;0.00;;;26.00;73.30;;;;;;4191485;28;20075;-66
2022/08/04 04:26:39;;;;;;;1.05;1.05;;;26.00;73.20;;;;;;4177961;28;20084;-67
2022/08/04 04:29:19;;;;;;;0.00;0.00;;;26.10;73.30;;;;;;4178782;28;20136;-67
2022/08/04 04:31:59;;;;;;;0.00;0.00;;;26.00;73.10;;;;;;4193866;28;20037;-67
2022/08/04 04:34:35;;;;;;;0.00;0.00;;;26.00;73.30;;;;;;4194138;28;20048;-67
2022/08/04 04:37:12;;;;;;;32.40;1.80;;;26.00;73.10;;;;;;4193498;28;20434;-67
2022/08/04 04:39:48;;;;;;;0.10;0.10;;;26.00;73.10;;;;;;4192574;28;20052;-67
2022/08/04 04:42:38;;;;;;;0.80;0.75;;;26.00;73.10;;;;;;4177346;28;20391;-67
2022/08/04 04:45:26;;;;;;;0.00;0.00;;;26.00;73.10;;;;;;4183381;28;20052;-66
2022/08/04 04:48:08;;;;;;;0.00;0.00;;;26.00;73.00;;;;;;4193672;28;20098;-67
2022/08/04 04:50:45;;;;;;;0.13;0.13;;;26.00;72.90;;;;;;4192653;28;20048;-66
2022/08/04 04:53:23;;;;;;;0.00;0.00;;;26.00;72.90;;;;;;4193822;28;20074;-66
2022/08/04 04:55:51;;;;;;;0.28;0.28;;;26.00;72.80;;;;;;4192416;28;20054;-67
2022/08/04 04:58:17;;;;;;;0.43;0.43;;;26.10;72.80;;;;;;4193169;28;20131;-63
2022/08/04 05:00:55;;;;;;;0.00;0.00;;;26.10;73.00;;;;;;4179566;28;20490;-67
2022/08/04 05:03:46;;;;;;;2.50;0.85;;;26.10;73.20;;;;;;4193376;28;20051;-66
2022/08/04 05:06:24;;;;;;;0.43;0.43;;;26.10;73.10;;;;;;4193810;28;20044;-66
2022/08/04 05:09:13;;;;;;;0.13;0.13;;;26.20;73.00;;;;;;4192796;28;20475;-66
2022/08/04 05:12:00;;;;;;;0.08;0.08;;;26.10;72.80;;;;;;4192981;28;20052;-66
2022/08/04 05:14:29;;;;;;;0.88;0.88;;;26.10;72.70;;;;;;4191534;28;20094;-66
2022/08/04 05:17:06;;;;;;;0.68;0.68;;;26.10;72.70;;;;;;4193049;28;20041;-66
2022/08/04 05:19:44;;;;;;;0.00;0.00;;;26.10;72.70;;;;;;4192721;28;20052;-66
2022/08/04 05:22:09;;;;;;;0.00;0.00;;;26.10;72.70;;;;;;4192892;28;20067;-66
2022/08/04 05:24:40;;;;;;;1.98;0.73;;;26.10;72.60;;;;;;4193079;28;20536;-65
2022/08/04 05:27:12;;;;;;;0.00;0.00;;;26.10;72.50;;;;;;4191331;28;20047;-64
2022/08/04 05:29:37;;;;;;;0.10;0.10;;;26.10;72.50;;;;;;4176255;28;20068;-64
2022/08/04 05:32:05;;;;;;;0.00;0.00;;;26.10;72.50;;;;;;4175558;28;20059;-64
2022/08/04 05:34:35;;;;;;;0.00;0.00;;;26.20;72.60;;;;;;4187520;28;20048;-64
2022/08/04 05:37:00;;;;;;;1.25;1.20;;;26.20;72.50;;;;;;4192711;28;20412;-64
2022/08/04 05:39:25;;;;;;;0.00;0.00;;;26.20;72.40;;;;;;4190659;28;20159;-65
2022/08/04 05:41:50;;;;;;;0.32;0.32;;;26.20;72.40;;;;;;4184318;28;20044;-65
2022/08/04 05:44:17;;;;;;;4.38;1.17;;;26.20;72.40;;;;;;4186495;28;20419;-65
2022/08/04 05:46:40;;;;;;;0.00;0.00;;;26.20;72.40;;;;;;4192965;28;20052;-65
2022/08/04 05:49:02;;;;;;;0.00;0.00;;;26.20;72.80;;;;;;4177073;28;20399;-66
2022/08/04 05:51:29;;;;;;;0.00;0.00;;;26.20;72.30;;;;;;4175497;28;20051;-65
2022/08/04 05:53:54;;;;;;;0.63;0.63;;;26.20;72.30;;;;;;4175747;28;20056;-65
2022/08/04 05:56:16;;;;;;;0.35;0.35;;;26.20;73.20;;;;;;4180468;28;20048;-65
2022/08/04 05:58:39;;;;;;;0.00;0.00;;;26.20;72.30;;;;;;4191671;28;20492;-65
2022/08/04 06:01:02;;;;;;;0.00;0.00;;;26.20;72.40;;;;;;4181212;28;20061;-65
2022/08/04 06:03:25;;;;;;;0.40;0.25;;;26.20;72.40;;;;;;4190338;28;20040;-65
2022/08/04 06:05:49;;;;;;;0.10;0.10;;;26.20;72.50;;;;;;4174608;28;20049;-65
2022/08/04 06:08:13;;;;;;;0.20;0.20;;;26.20;72.40;;;;;;4178718;28;20113;-64
2022/08/04 06:10:38;;;;;;;0.65;0.32;;;26.20;72.50;;;;;;4183156;28;20125;-65
2022/08/04 06:13:05;;;;;;;0.10;0.10;;;26.20;72.40;;;;;;4191773;28;20044;-66
2022/08/04 06:15:29;;;;;;;0.00;0.00;;;26.20;72.40;;;;;;4190302;28;20088;-65
2022/08/04 06:17:58;;;;;;;0.85;0.85;;;26.20;72.40;;;;;;4182637;28;20488;-65
2022/08/04 06:20:42;;;;;;;1.25;1.15;;;26.20;72.30;;;;;;4175747;28;20103;-66
2022/08/04 06:23:10;;;;;;;0.05;0.05;;;26.30;72.40;;;;;;4175754;28;20053;-66
2022/08/04 06:25:39;;;;;;;0.10;0.10;;;26.30;72.40;;;;;;4175479;28;20049;-66
2022/08/04 06:28:05;;;;;;;0.00;0.00;;;26.30;72.40;;;;;;4175790;28;20053;-65
2022/08/04 06:30:28;;;;;;;0.00;0.00;;;26.30;72.50;;;;;;4175004;28;20131;-65
2022/08/04 06:32:55;;;;;;;0.00;0.00;;;26.30;73.30;;;;;;4192510;28;20460;-65
2022/08/04 06:35:26;;;;;;;0.00;0.00;;;26.30;72.50;;;;;;4192233;28;20076;-66
2022/08/04 06:37:49;;;;;;;0.00;0.00;;;26.30;72.40;;;;;;4191727;28;20392;-66
2022/08/04 06:40:13;;;;;;;0.10;0.10;;;26.30;72.40;;;;;;4189939;28;20067;-66
2022/08/04 06:42:55;;;;;;;0.00;0.00;;;26.30;72.30;;;;;;4187164;28;20699;-66
2022/08/04 06:45:19;;;;;;;0.43;0.43;;;26.40;72.20;;;;;;4175181;28;20140;-66
2022/08/04 06:47:43;;;;;;;0.20;0.20;;;26.40;72.00;;;;;;4175926;28;20073;-66
2022/08/04 06:50:08;;;;;;;0.00;0.00;;;26.40;71.70;;;;;;4174106;28;20068;-66
2022/08/04 06:52:50;;;;;;;0.13;0.13;;;26.40;71.40;;;;;;4175164;28;20052;-66
2022/08/04 06:55:12;;;;;;;0.00;0.00;;;26.40;71.20;;;;;;4182261;28;20048;-66
2022/08/04 06:57:36;;;;;;;0.08;0.08;;;26.40;70.90;;;;;;4190422;28;20055;-65
2022/08/04 07:00:02;;;;;;;0.10;0.10;;;26.40;70.80;;;;;;4191107;28;20051;-65
2022/08/04 07:02:27;;;;;;;0.00;0.00;;;26.40;70.60;;;;;;4191870;28;20095;-66
2022/08/04 07:04:51;;;;;;;0.10;0.10;;;26.50;70.70;;;;;;4191703;28;20062;-66
2022/08/04 07:07:14;;;;;;;2.78;1.40;;;26.50;70.60;;;;;;4191334;28;20071;-65
2022/08/04 07:09:37;;;;;;;0.32;0.32;;;26.50;70.60;;;;;;4191532;28;20135;-66
2022/08/04 07:12:00;;;;;;;0.00;0.00;;;26.50;70.30;;;;;;4191807;28;20048;-66
2022/08/04 07:14:24;;;;;;;1.30;1.23;;;26.60;70.10;;;;;;4191620;28;20060;-67
2022/08/04 07:16:49;;;;;;;4.57;0.63;;;26.60;69.90;;;;;;4191860;28;20048;-66
2022/08/04 07:19:11;;;;;;;0.10;0.10;;;26.60;69.80;;;;;;4189916;28;20132;-66
2022/08/04 07:21:39;;;;;;;0.68;0.68;;;26.60;69.70;;;;;;4175318;28;20489;-66
2022/08/04 07:24:01;;;;;;;0.20;0.20;;;26.60;69.40;;;;;;4189555;28;20075;-66
2022/08/04 07:26:28;;;;;;;1.60;0.73;;;26.70;69.30;;;;;;4175513;28;20122;-66
2022/08/04 07:28:50;;;;;;;0.95;0.60;;;26.70;69.10;;;;;;4174583;28;20156;-66
2022/08/04 07:31:16;;;;;;;0.32;0.32;;;26.80;69.10;;;;;;4190414;28;20044;-66
2022/08/04 07:33:57;;;;;;;0.00;0.00;;;26.80;68.90;;;;;;4189915;28;20059;-66
2022/08/04 07:36:38;;;;;;;0.00;0.00;;;26.90;68.70;;;;;;4176355;28;20059;-66
2022/08/04 07:39:11;;;;;;;0.45;0.45;;;26.90;68.60;;;;;;4191962;28;20514;-66
2022/08/04 07:41:34;;;;;;;0.03;0.03;;;26.90;68.30;;;;;;4170586;28;20059;-66
2022/08/04 07:43:57;;;;;;;0.08;0.08;;;27.00;68.20;;;;;;4190797;28;20053;-66
2022/08/04 07:46:19;;;;;;;5.72;1.50;;;27.00;68.20;;;;;;4178622;28;20049;-67
2022/08/04 07:48:41;;;;;;;0.00;0.00;;;27.00;68.10;;;;;;4176479;28;20049;-67
2022/08/04 07:51:06;;;;;;;0.00;0.00;;;27.00;68.00;;;;;;4174108;28;20132;-66
2022/08/04 07:53:29;;;;;;;0.50;0.50;;;27.00;67.90;;;;;;4189908;28;20109;-66
2022/08/04 07:56:13;;;;;;;1.45;0.32;;;27.10;67.80;;;;;;4191634;28;20045;-67
2022/08/04 07:58:35;;;;;;;0.13;0.13;;;27.10;67.50;;;;;;4190825;28;20573;-66
2022/08/04 08:00:57;;;;;;;0.00;0.00;;;27.10;67.50;;;;;;4192053;28;20503;-68
2022/08/04 08:03:20;;;;;;;0.20;0.20;;;27.10;67.30;;;;;;4193227;28;20090;-69
2022/08/04 08:05:43;;;;;;;2.00;1.55;;;27.20;67.80;;;;;;4176669;28;20044;-66
2022/08/04 08:08:19;;;;;;;0.00;0.00;;;27.20;68.00;;;;;;4192532;28;20048;-68
2022/08/04 08:10:47;;;;;;;0.00;0.00;;;27.20;67.70;;;;;;4192583;28;20439;-67
2022/08/04 08:13:09;;;;;;;0.05;0.05;;;27.30;67.70;;;;;;4193618;28;20175;-66
2022/08/04 08:15:31;;;;;;;0.00;0.00;;;27.30;67.60;;;;;;4194431;28;20048;-66
2022/08/04 08:17:54;;;;;;;0.85;0.55;;;27.30;67.40;;;;;;4193997;28;20545;-66
2022/08/04 08:20:20;;;;;;;7.60;3.50;;;27.30;67.30;;;;;;4194330;28;20533;-66
2022/08/04 08:22:50;;;;;;;0.67;0.67;;;27.30;67.20;;;;;;4193726;28;20138;-66
2022/08/04 08:25:14;;;;;;;0.98;0.98;;;27.40;67.10;;;;;;4177231;28;20318;-66
2022/08/04 08:27:37;;;;;;;0.63;0.47;;;27.40;67.00;;;;;;4194020;28;20131;-66
2022/08/04 08:29:59;;;;;;;0.15;0.15;;;27.40;67.00;;;;;;4193969;28;20048;-65
2022/08/04 08:32:21;;;;;;;3.83;0.65;;;27.40;66.90;;;;;;4194238;28;20051;-65
2022/08/04 08:34:44;;;;;;;5.60;2.08;;;27.40;66.80;;;;;;4190505;28;20076;-66
2022/08/04 08:37:15;;;;;;;0.40;0.40;;;27.40;66.70;;;;;;4194177;28;20458;-66
2022/08/04 08:39:39;;;;;;;;;;;27.40;66.70;;;;;;4178011;28;20049;-66
2022/08/04 08:42:34;;;;;;;0.20;0.20;;;27.40;66.70;;;;;;4193217;28;19927;-67
2022/08/04 08:45:44;;;;;;;0.85;0.47;;;27.40;66.60;;;;;;4175824;28;20064;-67
2022/08/04 08:48:45;;;;;;;0.73;0.73;;;27.40;66.50;;;;;;4159708;28;20041;-66
2022/08/04 08:51:40;;;;;;;0.28;0.28;;;27.40;66.50;;;;;;4175569;28;20060;-64
2022/08/04 08:54:24;;;;;;;1.85;1.10;;;27.40;66.50;;;;;;4188784;28;20072;-64
2022/08/04 08:56:59;;;;;;;0.00;0.00;;;27.50;66.50;;;;;;4175516;28;20053;-64
2022/08/04 08:59:43;;;;;;;0.00;0.00;;;27.50;66.50;;;;;;4193635;28;20043;-64
2022/08/04 09:02:42;;;;;;;7.68;2.10;;;27.50;66.40;;;;;;4192414;28;20040;-64
2022/08/04 09:05:20;;;;;;;0.20;0.20;;;27.60;66.40;;;;;;4176962;28;20476;-64
2022/08/04 09:08:02;;;;;;;0.05;0.05;;;27.60;66.20;;;;;;4160521;28;20057;-64
2022/08/04 09:10:28;;;;;;;0.00;0.00;;;27.60;66.20;;;;;;4160660;28;20049;-64
2022/08/04 09:12:59;;;;;;;0.10;0.10;;;27.60;66.00;;;;;;4164042;28;20056;-63
2022/08/04 09:15:31;;;;;;;1.10;1.00;;;27.60;65.90;;;;;;4193263;28;20817;-63
2022/08/04 09:17:59;;;;;;;0.22;0.22;;;27.70;65.90;;;;;;4193088;28;20086;-63
2022/08/04 09:20:29;;;;;;;0.00;0.00;;;27.70;65.90;;;;;;4192965;28;20051;-64
2022/08/04 09:22:54;;;;;;;;;;;27.70;65.80;;;;;;4193193;28;20166;-63
2022/08/04 09:25:24;;;;;;;0.10;0.10;;;27.70;65.80;;;;;;4193194;28;19931;-63
2022/08/04 09:27:53;;;;;;;0.00;0.00;;;27.70;65.70;;;;;;4192559;28;20055;-64
2022/08/04 09:30:19;;;;;;;0.10;0.10;;;27.80;65.70;;;;;;4191395;28;20142;-63
2022/08/04 09:33:07;;;;;;;0.00;0.00;;;27.80;65.60;;;;;;4189237;28;20063;-64
2022/08/04 09:35:40;;;;;;;0.00;0.00;;;27.80;65.90;;;;;;4191299;28;20060;-64
2022/08/04 09:38:12;;;;;;;0.00;0.00;;;27.90;65.50;;;;;;4176382;28;20500;-64
2022/08/04 09:40:45;;;;;;;0.00;0.00;;;27.90;65.40;;;;;;4192579;28;20044;-63
2022/08/04 09:43:26;;;;;;;0.38;0.38;;;27.90;65.40;;;;;;4191822;28;20062;-63
2022/08/04 09:46:00;;;;;;;0.00;0.00;;;27.90;65.30;;;;;;4192389;28;20106;-64
2022/08/04 09:48:34;;;;;;;0.00;0.00;;;28.00;65.30;;;;;;4191988;28;20484;-63
2022/08/04 09:50:59;;;;;;;4.20;0.70;;;28.00;65.30;;;;;;4192452;28;20045;-63
2022/08/04 09:53:42;;;;;;;0.88;0.82;;;28.00;65.10;;;;;;4185846;28;20068;-64
2022/08/04 09:56:10;;;;;;;0.43;0.40;;;28.00;65.10;;;;;;4175935;28;20128;-63
2022/08/04 09:58:46;;;;;;;0.00;0.00;;;28.10;65.10;;;;;;4175360;28;20480;-63
2022/08/04 10:01:11;;;;;;;1.65;0.80;;;28.10;65.00;;;;;;4177297;28;20057;-64
2022/08/04 10:03:38;;;;;;;0.00;0.00;;;28.10;64.80;;;;;;4176457;28;20037;-64
2022/08/04 10:06:10;;;;;;;0.38;0.38;;;28.10;64.70;;;;;;4177462;28;20048;-65
2022/08/04 10:08:52;;;;;;;0.00;0.00;;;28.20;64.70;;;;;;4192152;28;20094;-64
2022/08/04 10:11:33;;;;;;;0.22;0.15;;;28.20;64.60;;;;;;4190148;28;20040;-65
2022/08/04 10:14:05;;;;;;;0.10;0.10;;;28.20;64.50;;;;;;4181052;28;20060;-63
2022/08/04 10:16:40;;;;;;;0.00;0.00;;;28.30;64.80;;;;;;4176801;28;20045;-63
2022/08/04 10:19:15;;;;;;;0.10;0.10;;;28.30;64.80;;;;;;4189725;28;20048;-64
2022/08/04 10:21:55;;;;;;;4.75;0.63;;;28.30;65.70;;;;;;4191267;28;20131;-65
2022/08/04 10:24:32;;;;;;;0.25;0.25;;;28.40;64.70;;;;;;4185863;28;20521;-63
2022/08/04 10:26:59;;;;;;;0.00;0.00;;;28.40;64.90;;;;;;4177608;28;20064;-63
2022/08/04 10:29:27;;;;;;;0.00;0.00;;;28.40;64.70;;;;;;4175031;28;20049;-63
2022/08/04 10:31:57;;;;;;;0.30;0.30;;;28.40;64.60;;;;;;4175479;28;20049;-64
2022/08/04 10:34:24;;;;;;;0.07;0.07;;;28.40;64.60;;;;;;4175278;28;20049;-64
2022/08/04 10:36:56;;;;;;;0.00;0.00;;;28.40;64.40;;;;;;4183940;28;20037;-63
2022/08/04 10:39:24;;;;;;;0.00;0.00;;;28.40;64.40;;;;;;4175457;28;20395;-64
2022/08/04 10:42:16;;;;;;;0.00;0.00;;;28.30;64.30;;;;;;4174843;28;20566;-64
2022/08/04 10:44:49;;;;;;;0.28;0.28;;;28.40;64.40;;;;;;4190994;28;20040;-63
2022/08/04 10:47:19;;;;;;;0.38;0.38;;;28.40;64.40;;;;;;4189579;28;20044;-63
2022/08/04 10:49:46;;;;;;;0.08;0.08;;;28.40;64.40;;;;;;4174994;28;20063;-65
2022/08/04 10:52:15;;;;;;;0.25;0.25;;;28.40;64.30;;;;;;4176612;28;20053;-65
2022/08/04 10:54:46;;;;;;;0.00;0.00;;;28.40;64.30;;;;;;4176583;28;20048;-65
2022/08/04 10:57:10;;;;;;;;;;;28.40;64.30;;;;;;4175207;28;20477;-65
2022/08/04 10:59:39;;;;;;;0.85;0.70;;;28.40;64.30;;;;;;4187699;28;19974;-63
2022/08/04 11:02:17;;;;;;;0.20;0.20;;;28.40;64.20;;;;;;4190252;28;20507;-64
2022/08/04 11:04:45;;;;;;;0.22;0.22;;;28.40;64.30;;;;;;4191959;28;20102;-64
2022/08/04 11:07:09;;;;;;;0.00;0.00;;;28.40;65.20;;;;;;4189749;28;20480;-63
2022/08/04 11:09:33;;;;;;;2.08;1.00;;;28.40;64.20;;;;;;4160166;28;20065;-64
2022/08/04 11:11:57;;;;;;;6.75;2.15;;;28.40;64.20;;;;;;4190578;28;20059;-64
2022/08/04 11:14:27;;;;;;;0.00;0.00;;;28.40;64.20;;;;;;4174365;28;20056;-63
2022/08/04 11:16:55;;;;;;;0.00;0.00;;;28.40;64.10;;;;;;4191209;28;20768;-64
2022/08/04 11:19:30;;;;;;;0.00;0.00;;;28.40;64.00;;;;;;4190852;28;20076;-64
2022/08/04 11:22:10;;;;;;;0.00;0.00;;;28.50;64.00;;;;;;4191431;28;20086;-63
2022/08/04 11:24:40;;;;;;;0.52;0.52;;;28.50;64.00;;;;;;4190873;28;20076;-64
2022/08/04 11:27:09;;;;;;;0.10;0.10;;;28.50;63.90;;;;;;4190439;28;20044;-64
2022/08/04 11:29:41;;;;;;;0.10;0.10;;;28.50;63.90;;;;;;4184349;28;20052;-64
2022/08/04 11:32:03;;;;;;;;;;;28.50;63.80;;;;;;4189912;28;20481;-64
2022/08/04 11:34:27;;;;;;;1.13;1.08;;;28.50;63.80;;;;;;4190776;28;19920;-63
2022/08/04 11:37:00;;;;;;;0.00;0.00;;;28.50;63.70;;;;;;4194073;28;20040;-64
2022/08/04 11:39:29;;;;;;;0.00;0.00;;;28.50;63.70;;;;;;4194252;28;20059;-62
2022/08/04 11:41:56;;;;;;;0.00;0.00;;;28.50;63.80;;;;;;4177452;28;20060;-63
2022/08/04 11:44:34;;;;;;;0.00;0.00;;;28.50;63.80;;;;;;4178852;28;20060;-63
2022/08/04 11:47:02;;;;;;;0.00;0.00;;;28.50;63.70;;;;;;4193173;28;20052;-63
2022/08/04 11:49:31;;;;;;;0.00;0.00;;;28.50;63.70;;;;;;4179215;28;20109;-62
2022/08/04 11:51:56;;;;;;;0.00;0.00;;;28.50;63.70;;;;;;4177455;28;20064;-63
2022/08/04 11:54:19;;;;;;;0.00;0.00;;;28.50;63.70;;;;;;4182930;28;20459;-63
2022/08/04 11:56:43;;;;;;;0.08;0.08;;;28.50;63.70;;;;;;4194733;28;20086;-63
2022/08/04 11:59:07;;;;;;;0.00;0.00;;;28.50;63.70;;;;;;4181435;28;20426;-63
2022/08/04 12:01:38;;;;;;;0.10;0.10;;;28.50;63.80;;;;;;4178160;28;20536;-63
2022/08/04 12:04:05;;;;;;;0.00;0.00;;;28.50;63.80;;;;;;4179494;28;20045;-63
2022/08/04 12:06:33;;;;;;;0.00;0.00;;;28.50;63.80;;;;;;4178202;28;20045;-64
2022/08/04 12:09:04;;;;;;;1.00;0.95;;;28.50;63.90;;;;;;4176805;28;20068;-65
2022/08/04 12:11:37;;;;;;;0.00;0.00;;;28.50;63.90;;;;;;4177287;28;20067;-65
2022/08/04 12:14:10;;;;;;;0.00;0.00;;;28.50;64.00;;;;;;4190928;28;20048;-65
2022/08/04 12:16:38;;;;;;;0.00;0.00;;;28.50;64.00;;;;;;4192454;28;20044;-65
2022/08/04 12:19:03;;;;;;;0.28;0.28;;;28.50;64.00;;;;;;4180667;28;20091;-65
2022/08/04 12:21:30;;;;;;;0.00;0.00;;;28.50;64.00;;;;;;4191246;28;20109;-66
2022/08/04 12:23:56;;;;;;;0.00;0.00;;;28.50;64.10;;;;;;4194006;28;20493;-66
2022/08/04 12:26:28;;;;;;;0.90;0.17;;;28.50;64.10;;;;;;4193748;28;20044;-65
2022/08/04 12:28:55;;;;;;;0.00;0.00;;;28.50;64.10;;;;;;4193423;28;20052;-66
2022/08/04 12:31:41;;;;;;;0.00;0.00;;;28.50;64.10;;;;;;4193527;28;20052;-67
2022/08/04 12:34:08;;;;;;;0.00;0.00;;;28.50;64.10;;;;;;4193760;28;20531;-66
2022/08/04 12:36:37;;;;;;;0.00;0.00;;;28.50;64.10;;;;;;4192760;28;20041;-66
2022/08/04 12:39:04;;;;;;;0.00;0.00;;;28.50;64.10;;;;;;4177277;28;20067;-66
2022/08/04 12:41:33;;;;;;;0.00;0.00;;;28.50;64.10;;;;;;4175343;28;21195;-66
2022/08/04 12:44:05;;;;;;;0.20;0.20;;;28.50;64.20;;;;;;4192229;28;20048;-65
2022/08/04 12:46:30;;;;;;;0.00;0.00;;;28.50;64.30;;;;;;4193194;28;20102;-65
2022/08/04 12:49:00;;;;;;;0.00;0.00;;;28.50;64.60;;;;;;4193730;28;20507;-66
2022/08/04 12:51:26;;;;;;;;;;;28.40;64.60;;;;;;4192395;28;20497;-66
2022/08/04 12:53:51;;;;;;;0.00;0.00;;;28.40;64.60;;;;;;4175573;28;20322;-65
2022/08/04 12:56:16;;;;;;;0.00;0.00;;;28.40;64.70;;;;;;4193465;28;20460;-66
2022/08/04 12:58:41;;;;;;;0.00;0.00;;;28.40;64.70;;;;;;4185194;28;20076;-66
2022/08/04 13:01:08;;;;;;;0.32;0.32;;;28.40;64.70;;;;;;4179136;28;20125;-66
2022/08/04 13:03:56;;;;;;;0.38;0.38;;;28.30;64.60;;;;;;4191548;28;20595;-66
2022/08/04 13:06:25;;;;;;;0.00;0.00;;;28.30;64.70;;;;;;4193581;28;20408;-66
2022/08/04 13:08:48;;;;;;;0.00;0.00;;;28.30;64.70;;;;;;4176802;28;20450;-65
2022/08/04 13:11:12;;;;;;;0.00;0.00;;;28.30;64.70;;;;;;4182698;28;20056;-65
2022/08/04 13:13:36;;;;;;;0.17;0.17;;;28.30;64.80;;;;;;4193163;28;20056;-65
2022/08/04 13:16:01;;;;;;;0.17;0.17;;;28.30;64.80;;;;;;4193588;28;20052;-65
2022/08/04 13:18:24;;;;;;;0.00;0.00;;;28.30;64.80;;;;;;4192881;28;20498;-65